createdAt,value
2019-01-24T06:04:01.170Z,0.1
2019-01-24T06:07:01.360Z,0.2
2019-01-24T06:08:01.085Z,0.3
2019-01-24T06:10:01.085Z,0.4
2019-01-24T06:11:01.089Z,0.5
2019-01-24T06:13:02.199Z,0.6
2019-01-24T06:14:01.088Z,0.7
2019-01-24T06:15:01.089Z,0.7
2019-01-24T06:16:01.092Z,0.8
2019-01-24T06:17:01.091Z,0.9
2019-01-24T06:19:01.234Z,1.0
2019-01-24T06:30:01.300Z,1.0
2019-01-24T06:34:01.881Z,1.1
2019-01-24T06:36:01.267Z,1.2
2019-01-24T06:37:01.107Z,1.3
2019-01-24T06:39:01.093Z,1.5
2019-01-24T06:40:01.104Z,1.6
2019-01-24T06:41:01.240Z,1.8
2019-01-24T06:42:01.099Z,2.0
2019-01-24T06:43:01.094Z,2.3
2019-01-24T06:44:01.101Z,2.6
2019-01-24T06:45:01.099Z,2.9
2019-01-24T06:46:01.301Z,3.3
2019-01-24T06:47:01.110Z,3.9
2019-01-24T06:48:01.105Z,4.5
2019-01-24T06:49:01.183Z,5.1
2019-01-24T06:50:01.101Z,6.0
2019-01-24T06:51:01.242Z,7.0
2019-01-24T06:52:01.101Z,8.2
2019-01-24T06:53:01.100Z,9.7
2019-01-24T06:54:01.699Z,11.3
2019-01-24T06:55:01.099Z,13.3
2019-01-24T06:56:01.243Z,15.5
2019-01-24T06:57:01.104Z,18.3
2019-01-24T06:58:01.103Z,21.4
2019-01-24T06:59:01.098Z,25.0
2019-01-24T07:00:01.103Z,29.0
2019-01-24T07:01:01.247Z,33.5
2019-01-24T07:02:01.105Z,38.5
2019-01-24T07:04:01.085Z,45.2
2019-01-24T07:05:01.083Z,52.7
2019-01-24T07:06:01.222Z,60.9
2019-01-24T07:07:01.085Z,70.1
2019-01-24T07:08:01.097Z,80.4
2019-01-24T07:09:01.085Z,91.5
2019-01-24T07:10:01.084Z,103.7
2019-01-24T07:11:01.234Z,117.1
2019-01-24T07:12:01.087Z,131.9
2019-01-24T07:13:01.085Z,147.6
2019-01-24T07:14:01.093Z,164.3
2019-01-24T07:15:02.181Z,182.0
2019-01-24T07:16:01.227Z,201.1
2019-01-24T07:17:01.090Z,221.9
2019-01-24T07:18:01.117Z,244.9
2019-01-24T07:19:01.089Z,268.7
2019-01-24T07:20:01.092Z,293.9
2019-01-24T07:21:01.237Z,320.8
2019-01-24T07:22:01.087Z,349.8
2019-01-24T07:23:01.115Z,381.1
2019-01-24T07:24:01.091Z,416.0
2019-01-24T07:25:01.097Z,453.7
2019-01-24T07:26:01.228Z,491.7
2019-01-24T07:27:01.091Z,530.2
2019-01-24T07:28:01.124Z,572.7
2019-01-24T07:29:01.105Z,619.1
2019-01-24T07:30:01.104Z,669.3
2019-01-24T07:31:01.234Z,721.5
2019-01-24T07:32:01.096Z,774.7
2019-01-24T07:33:01.093Z,830.3
2019-01-24T07:34:01.093Z,889.8
2019-01-24T07:35:01.109Z,953.7
2019-01-24T07:36:02.204Z,1020.1
2019-01-24T07:37:01.092Z,1088.6
2019-01-24T07:38:01.095Z,1159.1
2019-01-24T07:39:01.096Z,1231.8
2019-01-24T07:40:01.108Z,1306.8
2019-01-24T07:41:01.239Z,1384.5
2019-01-24T07:42:01.098Z,1464.7
2019-01-24T07:43:01.125Z,1547.1
2019-01-24T07:44:01.102Z,1634.7
2019-01-24T07:45:01.107Z,1721.5
2019-01-24T07:46:01.241Z,1809.0
2019-01-24T07:47:01.097Z,1901.9
2019-01-24T07:48:01.099Z,1997.7
2019-01-24T07:49:01.100Z,2096.3
2019-01-24T07:50:01.180Z,2202.3
2019-01-24T07:51:06.245Z,2320.3
2019-01-24T07:52:01.098Z,2452.0
2019-01-24T07:53:01.096Z,2595.0
2019-01-24T07:54:01.101Z,2751.1
2019-01-24T07:55:01.101Z,2914.3
2019-01-24T07:56:01.242Z,3092.4
2019-01-24T07:58:01.093Z,3268.1
2019-01-24T07:59:01.085Z,3443.5
2019-01-24T08:00:01.098Z,3628.5
2019-01-24T08:01:01.085Z,3824.5
2019-01-24T08:02:01.231Z,4021.5
2019-01-24T08:03:01.087Z,4197.1
2019-01-24T08:04:01.088Z,4372.3
2019-01-24T08:05:01.089Z,4548.1
2019-01-24T08:06:01.090Z,4716.3
2019-01-24T08:07:01.297Z,4882.0
2019-01-24T08:08:01.095Z,5040.1
2019-01-24T08:09:01.092Z,5180.8
2019-01-24T08:10:01.091Z,5308.5
2019-01-24T08:11:01.096Z,5432.9
2019-01-24T08:12:01.236Z,5552.6
2019-01-24T08:13:01.123Z,5683.5
2019-01-24T08:14:01.091Z,5822.9
2019-01-24T08:15:01.117Z,5968.1
2019-01-24T08:16:01.093Z,6124.9
2019-01-24T08:17:01.237Z,6277.3
2019-01-24T08:18:01.132Z,6444.3
2019-01-24T08:19:01.093Z,6612.1
2019-01-24T08:20:01.093Z,6799.5
2019-01-24T08:21:01.093Z,7008.1
2019-01-24T08:22:01.238Z,7205.8
2019-01-24T08:23:01.119Z,7398.2
2019-01-24T08:24:01.094Z,7595.2
2019-01-24T08:25:01.095Z,7794.7
2019-01-24T08:26:01.094Z,7996.1
2019-01-24T08:27:01.303Z,8198.3
2019-01-24T08:28:01.131Z,8394.5
2019-01-24T08:29:01.099Z,8577.3
2019-01-24T08:30:01.094Z,8746.1
2019-01-24T08:31:01.098Z,8913.6
2019-01-24T08:32:01.307Z,9114.7
2019-01-24T08:33:01.161Z,9331.8
2019-01-24T08:34:01.096Z,9549.3
2019-01-24T08:35:01.098Z,9730.7
2019-01-24T08:36:01.393Z,9899.7
2019-01-24T08:37:01.493Z,10078.3
2019-01-24T08:38:01.135Z,10273.7
2019-01-24T08:39:01.100Z,10470.6
2019-01-24T08:40:01.108Z,10653.2
2019-01-24T08:42:01.289Z,10856.9
2019-01-24T08:43:01.086Z,11074.7
2019-01-24T08:44:01.084Z,11289.5
2019-01-24T08:45:01.086Z,11506.1
2019-01-24T08:46:01.089Z,11720.3
2019-01-24T08:47:01.228Z,11923.0
2019-01-24T08:48:01.085Z,12096.2
2019-01-24T08:49:01.086Z,12285.7
2019-01-24T08:50:01.083Z,12477.8
2019-01-24T08:51:01.125Z,12670.1
2019-01-24T08:52:01.229Z,12864.4
2019-01-24T08:53:01.088Z,13055.4
2019-01-24T08:54:01.087Z,13233.6
2019-01-24T08:55:01.085Z,13444.5
2019-01-24T08:56:01.085Z,13709.3
2019-01-24T08:57:01.260Z,13984.5
2019-01-24T08:58:01.088Z,14291.7
2019-01-24T08:59:01.089Z,14713.5
2019-01-24T09:00:01.107Z,15264.5
2019-01-24T09:01:01.092Z,15855.5
2019-01-24T09:02:01.260Z,16381.4
2019-01-24T09:03:01.091Z,16898.7
2019-01-24T09:04:01.095Z,17372.3
2019-01-24T09:05:01.092Z,17839.7
2019-01-24T09:06:01.092Z,18377.6
2019-01-24T09:07:01.230Z,18942.9
2019-01-24T09:08:01.093Z,19491.7
2019-01-24T09:09:01.097Z,20054.3
2019-01-24T09:10:01.173Z,20646.6
2019-01-24T09:11:01.096Z,21235.5
2019-01-24T09:12:01.237Z,21795.7
2019-01-24T09:13:01.093Z,22234.8
2019-01-24T09:14:01.095Z,22472.9
2019-01-24T09:15:01.158Z,22537.9
2019-01-24T09:16:01.095Z,22537.2
2019-01-24T09:17:01.269Z,22622.1
2019-01-24T09:18:01.095Z,22799.2
2019-01-24T09:19:01.098Z,23121.9
2019-01-24T09:20:01.095Z,23569.9
2019-01-24T09:21:01.157Z,24016.1
2019-01-24T09:22:01.237Z,24447.9
2019-01-24T09:23:01.108Z,24848.5
2019-01-24T09:24:01.100Z,25121.2
2019-01-24T09:25:01.099Z,25248.3
2019-01-24T09:26:01.100Z,25338.4
2019-01-24T09:27:01.247Z,25429.8
2019-01-24T09:28:01.095Z,25634.9
2019-01-24T09:29:01.100Z,26028.5
2019-01-24T09:30:01.102Z,26600.7
2019-01-24T09:31:01.093Z,27219.7
2019-01-24T09:32:01.243Z,27697.5
2019-01-24T09:33:01.102Z,28004.4
2019-01-24T09:34:01.102Z,28200.7
2019-01-24T09:35:01.110Z,28266.7
2019-01-24T09:36:01.101Z,28255.9
2019-01-24T09:37:01.268Z,28209.2
2019-01-24T09:38:01.616Z,28198.4
2019-01-24T09:39:01.104Z,28291.1
2019-01-24T09:40:01.100Z,28572.4
2019-01-24T09:41:01.098Z,28966.2
2019-01-24T09:42:01.277Z,29331.4
2019-01-24T09:43:01.100Z,29614.3
2019-01-24T09:44:01.099Z,29753.7
2019-01-24T09:45:01.073Z,29815.5
2019-01-24T09:46:01.100Z,29969.3
2019-01-24T09:47:01.240Z,30244.6
2019-01-24T09:49:01.093Z,30533.5
2019-01-24T09:50:01.094Z,30899.2
2019-01-24T09:51:01.089Z,31484.0
2019-01-24T09:52:01.087Z,32153.9
2019-01-24T09:53:01.225Z,32844.7
2019-01-24T09:54:01.085Z,33523.7
2019-01-24T09:55:01.478Z,34109.9
2019-01-24T09:56:01.085Z,34632.7
2019-01-24T09:57:01.085Z,35142.5
2019-01-24T09:58:02.303Z,35662.4
2019-01-24T09:59:01.087Z,36127.5
2019-01-24T10:00:01.126Z,36568.4
2019-01-24T10:01:01.096Z,36921.4
2019-01-24T10:02:01.091Z,37189.6
2019-01-24T10:03:01.300Z,37488.0
2019-01-24T10:04:01.089Z,37800.7
2019-01-24T10:05:01.094Z,37969.3
2019-01-24T10:06:01.099Z,37976.9
2019-01-24T10:07:01.091Z,38041.4
2019-01-24T10:08:01.230Z,38143.5
2019-01-24T10:09:01.090Z,38194.3
2019-01-24T10:10:01.099Z,38211.5
2019-01-24T10:11:01.090Z,38079.7
2019-01-24T10:12:01.089Z,37783.3
2019-01-24T10:13:01.243Z,37413.6
2019-01-24T10:14:01.092Z,37057.3
2019-01-24T10:15:01.092Z,36700.7
2019-01-24T10:16:01.092Z,36332.4
2019-01-24T10:17:01.096Z,35917.3
2019-01-24T10:18:01.230Z,35454.1
2019-01-24T10:19:02.245Z,35062.8
2019-01-24T10:20:01.101Z,34733.3
2019-01-24T10:21:01.123Z,34346.1
2019-01-24T10:22:01.099Z,33851.9
2019-01-24T10:23:01.243Z,33297.6
2019-01-24T10:24:01.094Z,32833.3
2019-01-24T10:25:01.105Z,32515.0
2019-01-24T10:26:01.133Z,32277.1
2019-01-24T10:27:01.099Z,32072.9
2019-01-24T10:28:01.306Z,31963.5
2019-01-24T10:29:01.100Z,31946.2
2019-01-24T10:30:01.113Z,31986.5
2019-01-24T10:31:01.134Z,32025.5
2019-01-24T10:32:01.099Z,32015.5
2019-01-24T10:34:01.453Z,32009.3
2019-01-24T10:35:01.084Z,31985.3
2019-01-24T10:36:01.086Z,31958.9
2019-01-24T10:37:01.089Z,31981.1
2019-01-24T10:38:01.082Z,32042.5
2019-01-24T10:39:01.251Z,32164.3
2019-01-24T10:40:02.047Z,32343.2
2019-01-24T10:41:01.082Z,32560.7
2019-01-24T10:42:01.082Z,32778.5
2019-01-24T10:43:01.087Z,32942.0
2019-01-24T10:44:01.225Z,33007.8
2019-01-24T10:45:01.081Z,33059.3
2019-01-24T10:46:01.084Z,33155.9
2019-01-24T10:47:01.087Z,33352.0
2019-01-24T10:48:01.087Z,33697.0
2019-01-24T10:49:01.231Z,34135.7
2019-01-24T10:50:01.086Z,34630.4
2019-01-24T10:51:01.084Z,35179.5
2019-01-24T10:52:01.083Z,35735.6
2019-01-24T10:53:01.090Z,36216.4
2019-01-24T10:54:01.227Z,36560.5
2019-01-24T10:55:01.086Z,36793.6
2019-01-24T10:56:01.094Z,37002.5
2019-01-24T10:57:01.119Z,37230.0
2019-01-24T10:58:01.088Z,37508.3
2019-01-24T10:59:01.225Z,37800.8
2019-01-24T11:00:01.086Z,38018.2
2019-01-24T11:01:01.091Z,38149.6
2019-01-24T11:02:06.086Z,38176.7
2019-01-24T11:03:01.107Z,38062.9
2019-01-24T11:04:01.242Z,37828.3
2019-01-24T11:05:01.089Z,37523.9
2019-01-24T11:06:01.093Z,37155.6
2019-01-24T11:07:01.122Z,36733.9
2019-01-24T11:08:01.092Z,36353.6
2019-01-24T11:09:01.236Z,36097.8
2019-01-24T11:10:01.094Z,35925.7
2019-01-24T11:11:01.090Z,35779.9
2019-01-24T11:12:01.116Z,35684.5
2019-01-24T11:13:01.090Z,35630.0
2019-01-24T11:14:01.298Z,35602.9
2019-01-24T11:15:01.090Z,35599.2
2019-01-24T11:16:01.070Z,35617.7
2019-01-24T11:17:01.096Z,35652.0
2019-01-24T11:18:01.089Z,35748.6
2019-01-24T11:19:01.288Z,35875.5
2019-01-24T11:20:01.095Z,35993.9
2019-01-24T11:21:01.091Z,36097.8
2019-01-24T11:22:01.131Z,36221.1
2019-01-24T11:23:01.785Z,36326.3
2019-01-24T11:24:01.240Z,36384.8
2019-01-24T11:25:01.094Z,36362.2
2019-01-24T11:26:01.097Z,36271.9
2019-01-24T11:27:01.098Z,36130.9
2019-01-24T11:28:01.090Z,35957.3
2019-01-24T11:29:01.296Z,35787.1
2019-01-24T11:30:01.095Z,35634.9
2019-01-24T11:31:01.096Z,35480.7
2019-01-24T11:32:01.094Z,35342.3
2019-01-24T11:33:01.094Z,35206.7
2019-01-24T11:34:01.500Z,35090.3
2019-01-24T11:35:01.096Z,35000.8
2019-01-24T11:36:01.097Z,34890.6
2019-01-24T11:37:01.096Z,34737.7
2019-01-24T11:38:01.097Z,34553.7
2019-01-24T11:39:01.237Z,34380.5
2019-01-24T11:40:01.105Z,34244.0
2019-01-24T11:41:01.102Z,34091.2
2019-01-24T11:42:01.095Z,33900.1
2019-01-24T11:43:01.095Z,33692.7
2019-01-24T11:44:01.304Z,33509.4
2019-01-24T11:45:01.103Z,33359.2
2019-01-24T11:46:01.099Z,33250.7
2019-01-24T11:47:01.100Z,33167.9
2019-01-24T11:48:01.139Z,33091.7
2019-01-24T11:49:01.235Z,32994.2
2019-01-24T11:50:01.105Z,32864.2
2019-01-24T11:51:01.098Z,32722.4
2019-01-24T11:52:01.099Z,32581.9
2019-01-24T11:53:01.130Z,32469.0
2019-01-24T11:54:01.243Z,32352.5
2019-01-24T11:55:01.071Z,32214.9
2019-01-24T11:56:01.100Z,32104.5
2019-01-24T11:57:01.105Z,32060.1
2019-01-24T11:58:01.138Z,32080.5
2019-01-24T11:59:01.241Z,32143.9
2019-01-24T12:00:01.105Z,32221.5
2019-01-24T12:01:01.103Z,32281.7
2019-01-24T12:02:01.100Z,32294.1
2019-01-24T12:03:01.135Z,32248.8
2019-01-24T12:05:01.354Z,32179.3
2019-01-24T12:06:01.058Z,32157.5
2019-01-24T12:07:04.155Z,32161.4
2019-01-24T12:08:01.091Z,32152.6
2019-01-24T12:09:01.084Z,32133.4
2019-01-24T12:10:01.241Z,32106.2
2019-01-24T12:11:01.089Z,32063.9
2019-01-24T12:12:01.086Z,31995.5
2019-01-24T12:13:01.090Z,31891.5
2019-01-24T12:14:01.119Z,31745.1
2019-01-24T12:15:01.236Z,31560.5
2019-01-24T12:16:01.084Z,31353.3
2019-01-24T12:17:01.087Z,31142.2
2019-01-24T12:18:01.063Z,30950.9
2019-01-24T12:19:01.214Z,30760.5
2019-01-24T12:20:01.295Z,30560.0
2019-01-24T12:21:01.085Z,30309.2
2019-01-24T12:22:01.087Z,30036.7
2019-01-24T12:23:01.088Z,29773.5
2019-01-24T12:24:01.087Z,29503.6
2019-01-24T12:25:01.935Z,29234.1
2019-01-24T12:26:01.089Z,28972.7
2019-01-24T12:27:01.092Z,28701.7
2019-01-24T12:28:01.099Z,28400.6
2019-01-24T12:29:01.090Z,28087.9
2019-01-24T12:30:01.299Z,27769.1
2019-01-24T12:31:01.089Z,27465.9
2019-01-24T12:32:01.088Z,27201.7
2019-01-24T12:33:01.089Z,26990.9
2019-01-24T12:34:01.090Z,26845.8
2019-01-24T12:35:01.263Z,26741.0
2019-01-24T12:36:01.090Z,26674.7
2019-01-24T12:37:01.094Z,26646.1
2019-01-24T12:38:01.095Z,26629.7
2019-01-24T12:39:01.090Z,26604.4
2019-01-24T12:40:01.239Z,26560.3
2019-01-24T12:41:01.061Z,26524.9
2019-01-24T12:42:01.094Z,26519.1
2019-01-24T12:43:01.101Z,26573.5
2019-01-24T12:44:02.471Z,26685.5
2019-01-24T12:45:01.238Z,26821.1
2019-01-24T12:46:01.092Z,26927.5
2019-01-24T12:47:01.096Z,26983.4
2019-01-24T12:48:01.095Z,26991.5
2019-01-24T12:49:01.100Z,26953.2
2019-01-24T12:50:01.241Z,26900.6
2019-01-24T12:51:01.099Z,26844.9
2019-01-24T12:52:01.093Z,26797.3
2019-01-24T12:53:01.101Z,26766.0
2019-01-24T12:54:01.097Z,26750.3
2019-01-24T12:55:01.254Z,26754.6
2019-01-24T12:56:01.105Z,26747.3
2019-01-24T12:57:01.102Z,26712.5
2019-01-24T12:58:01.103Z,26628.7
2019-01-24T13:00:01.228Z,26426.9
2019-01-24T13:01:01.084Z,26172.7
2019-01-24T13:02:01.055Z,25906.0
2019-01-24T13:03:01.084Z,25631.8
2019-01-24T13:04:01.294Z,25349.8
2019-01-24T13:05:01.238Z,25060.9
2019-01-24T13:06:01.090Z,24762.9
2019-01-24T13:07:01.091Z,24449.9
2019-01-24T13:08:01.091Z,24109.1
2019-01-24T13:09:01.092Z,23753.0
2019-01-24T13:10:01.236Z,23410.4
2019-01-24T13:11:01.100Z,23093.8
2019-01-24T13:12:01.091Z,22818.5
2019-01-24T13:13:01.089Z,22583.4
2019-01-24T13:14:01.092Z,22381.1
2019-01-24T13:15:01.237Z,22261.4
2019-01-24T13:16:01.092Z,22172.1
2019-01-24T13:17:01.127Z,22096.8
2019-01-24T13:18:01.093Z,22035.1
2019-01-24T13:19:01.090Z,21989.5
2019-01-24T13:20:01.250Z,21956.5
2019-01-24T13:21:01.095Z,21918.8
2019-01-24T13:22:01.097Z,21870.9
2019-01-24T13:23:01.099Z,21813.9
2019-01-24T13:24:01.075Z,21742.9
2019-01-24T13:25:01.243Z,21647.0
2019-01-24T13:26:01.137Z,21525.7
2019-01-24T13:27:01.095Z,21385.8
2019-01-24T13:28:01.095Z,21232.7
2019-01-24T13:29:01.092Z,21074.2
2019-01-24T13:30:01.301Z,20904.0
2019-01-24T13:31:02.207Z,20717.8
2019-01-24T13:32:01.109Z,20532.3
2019-01-24T13:33:01.160Z,20365.5
2019-01-24T13:34:01.098Z,20213.4
2019-01-24T13:35:01.272Z,20061.5
2019-01-24T13:36:01.100Z,19902.7
2019-01-24T13:37:01.096Z,19735.8
2019-01-24T13:38:01.097Z,19572.9
2019-01-24T13:39:01.102Z,19419.1
2019-01-24T13:40:01.244Z,19277.8
2019-01-24T13:41:01.102Z,19144.0
2019-01-24T13:42:01.102Z,19023.7
2019-01-24T13:43:01.104Z,18918.9
2019-01-24T13:44:01.102Z,18813.5
2019-01-24T13:46:01.228Z,18712.7
2019-01-24T13:47:01.093Z,18629.2
2019-01-24T13:48:01.088Z,18545.4
2019-01-24T13:49:01.086Z,18437.3
2019-01-24T13:50:01.086Z,18309.3
2019-01-24T13:51:01.227Z,18196.3
2019-01-24T13:52:01.096Z,18102.8
2019-01-24T13:53:01.150Z,18023.8
2019-01-24T13:54:01.087Z,17962.3
2019-01-24T13:55:01.087Z,17915.2
2019-01-24T13:56:01.226Z,17873.0
2019-01-24T13:57:01.093Z,17826.5
2019-01-24T13:58:01.093Z,17759.1
2019-01-24T13:59:01.091Z,17651.9
2019-01-24T14:00:01.136Z,17513.9
2019-01-24T14:01:01.232Z,17351.7
2019-01-24T14:02:01.158Z,17163.5
2019-01-24T14:03:01.124Z,16958.9
2019-01-24T14:04:01.155Z,16745.5
2019-01-24T14:05:01.156Z,16516.3
2019-01-24T14:06:01.231Z,16266.1
2019-01-24T14:07:01.091Z,16001.7
2019-01-24T14:08:01.134Z,15723.1
2019-01-24T14:09:01.093Z,15427.9
2019-01-24T14:10:01.096Z,15110.8
2019-01-24T14:11:02.332Z,14767.9
2019-01-24T14:12:01.092Z,14396.9
2019-01-24T14:13:01.093Z,14003.0
2019-01-24T14:14:01.164Z,13621.5
2019-01-24T14:15:01.167Z,13271.1
2019-01-24T14:16:01.236Z,12943.5
2019-01-24T14:17:01.095Z,12630.6
2019-01-24T14:18:06.163Z,12325.8
2019-01-24T14:19:01.097Z,12024.9
2019-01-24T14:20:01.104Z,11726.7
2019-01-24T14:21:01.239Z,11431.1
2019-01-24T14:22:01.097Z,11148.5
2019-01-24T14:23:01.163Z,10886.0
2019-01-24T14:24:01.130Z,10637.2
2019-01-24T14:25:01.176Z,10397.7
2019-01-24T14:26:01.234Z,10165.3
2019-01-24T14:27:01.095Z,9939.9
2019-01-24T14:28:01.095Z,9727.8
2019-01-24T14:29:01.121Z,9524.7
2019-01-24T14:30:01.102Z,9324.1
2019-01-24T14:31:01.535Z,9133.9
2019-01-24T14:32:01.097Z,8957.0
2019-01-24T14:33:01.094Z,8790.8
2019-01-24T14:34:01.128Z,8632.4
2019-01-24T14:35:01.102Z,8483.3
2019-01-24T14:36:01.268Z,8337.9
2019-01-24T14:37:01.098Z,8192.3
2019-01-24T14:38:01.095Z,8049.9
2019-01-24T14:39:01.096Z,7910.2
2019-01-24T14:40:01.096Z,7777.3
2019-01-24T14:41:01.283Z,7664.7
2019-01-24T14:42:01.101Z,7586.7
2019-01-24T14:43:01.100Z,7546.2
2019-01-24T14:44:01.122Z,7536.3
2019-01-24T14:45:01.101Z,7537.8
2019-01-24T14:46:01.244Z,7541.8
2019-01-24T14:47:01.099Z,7542.1
2019-01-24T14:48:01.106Z,7535.7
2019-01-24T14:49:01.859Z,7530.9
2019-01-24T14:50:01.140Z,7534.8
2019-01-24T14:51:01.248Z,7549.8
2019-01-24T14:52:01.107Z,7570.8
2019-01-24T14:53:01.099Z,7588.0
2019-01-24T14:54:01.125Z,7596.3
2019-01-24T14:55:01.101Z,7594.7
2019-01-24T14:56:01.320Z,7578.3
2019-01-24T14:57:01.101Z,7537.3
2019-01-24T14:58:01.102Z,7459.5
2019-01-24T14:59:01.126Z,7339.8
2019-01-24T15:01:01.227Z,7183.7
2019-01-24T15:02:01.054Z,7015.5
2019-01-24T15:03:01.136Z,6848.0
2019-01-24T15:04:01.089Z,6686.3
2019-01-24T15:05:01.093Z,6527.7
2019-01-24T15:06:01.237Z,6366.0
2019-01-24T15:07:01.087Z,6197.3
2019-01-24T15:08:01.085Z,6022.7
2019-01-24T15:09:01.087Z,5841.9
2019-01-24T15:10:01.085Z,5658.5
2019-01-24T15:11:01.223Z,5478.5
2019-01-24T15:12:01.087Z,5303.4
2019-01-24T15:13:02.148Z,5131.3
2019-01-24T15:14:01.089Z,4966.1
2019-01-24T15:15:01.087Z,4811.9
2019-01-24T15:16:01.233Z,4674.2
2019-01-24T15:17:01.089Z,4536.7
2019-01-24T15:18:01.093Z,4399.3
2019-01-24T15:19:01.096Z,4263.3
2019-01-24T15:20:01.100Z,4122.6
2019-01-24T15:21:01.300Z,3974.0
2019-01-24T15:22:01.098Z,3820.5
2019-01-24T15:23:01.121Z,3669.8
2019-01-24T15:24:01.093Z,3529.7
2019-01-24T15:25:01.095Z,3402.6
2019-01-24T15:26:01.304Z,3286.3
2019-01-24T15:27:01.099Z,3177.4
2019-01-24T15:28:01.097Z,3069.9
2019-01-24T15:29:01.099Z,2958.5
2019-01-24T15:30:01.101Z,2842.7
2019-01-24T15:31:01.283Z,2724.7
2019-01-24T15:32:01.101Z,2605.9
2019-01-24T15:33:01.322Z,2488.7
2019-01-24T15:34:01.100Z,2378.3
2019-01-24T15:35:01.104Z,2276.5
2019-01-24T15:36:01.249Z,2180.6
2019-01-24T15:38:01.084Z,2081.2
2019-01-24T15:39:01.085Z,1982.0
2019-01-24T15:40:01.093Z,1881.3
2019-01-24T15:41:01.085Z,1777.9
2019-01-24T15:42:01.261Z,1670.5
2019-01-24T15:43:01.092Z,1559.3
2019-01-24T15:44:01.088Z,1450.3
2019-01-24T15:45:01.089Z,1348.0
2019-01-24T15:46:01.132Z,1253.2
2019-01-24T15:47:01.244Z,1166.0
2019-01-24T15:48:01.097Z,1086.1
2019-01-24T15:49:01.090Z,1010.8
2019-01-24T15:50:01.090Z,935.8
2019-01-24T15:51:01.093Z,861.3
2019-01-24T15:52:01.236Z,790.3
2019-01-24T15:53:01.093Z,730.0
2019-01-24T15:54:01.090Z,672.2
2019-01-24T15:55:01.089Z,617.5
2019-01-24T15:56:01.156Z,566.3
2019-01-24T15:57:01.295Z,518.7
2019-01-24T15:58:01.093Z,474.5
2019-01-24T15:59:01.092Z,434.2
2019-01-24T16:00:01.101Z,396.9
2019-01-24T16:01:01.124Z,361.8
2019-01-24T16:02:01.235Z,328.7
2019-01-24T16:03:01.092Z,296.9
2019-01-24T16:04:01.213Z,266.4
2019-01-24T16:05:01.125Z,238.1
2019-01-24T16:06:01.096Z,211.9
2019-01-24T16:07:01.238Z,188.2
2019-01-24T16:08:01.703Z,167.1
2019-01-24T16:09:01.098Z,148.4
2019-01-24T16:10:01.130Z,131.9
2019-01-24T16:11:01.096Z,117.3
2019-01-24T16:12:01.278Z,104.2
2019-01-24T16:13:01.103Z,92.4
2019-01-24T16:14:01.098Z,81.7
2019-01-24T16:15:01.138Z,72.1
2019-01-24T16:16:01.102Z,63.5
2019-01-24T16:17:01.250Z,55.7
2019-01-24T16:18:01.096Z,48.8
2019-01-24T16:19:01.097Z,42.7
2019-01-24T16:20:01.133Z,36.9
2019-01-24T16:21:01.099Z,31.7
2019-01-24T16:22:01.311Z,27.3
2019-01-24T16:23:01.147Z,23.4
2019-01-24T16:24:01.101Z,20.0
2019-01-24T16:25:01.130Z,17.0
2019-01-24T16:27:01.233Z,14.4
2019-01-24T16:28:01.085Z,12.2
2019-01-24T16:29:01.087Z,10.3
2019-01-24T16:30:01.095Z,8.7
2019-01-24T16:31:01.092Z,7.3
2019-01-24T16:32:01.269Z,6.1
2019-01-24T16:33:01.088Z,5.2
2019-01-24T16:34:01.089Z,4.4
2019-01-24T16:35:01.094Z,3.7
2019-01-24T16:36:01.091Z,3.1
2019-01-24T16:37:01.264Z,2.7
2019-01-24T16:38:01.090Z,2.3
2019-01-24T16:39:01.093Z,1.9
2019-01-24T16:40:01.172Z,1.7
2019-01-24T16:41:01.094Z,1.5
2019-01-24T16:42:01.311Z,1.3
2019-01-24T16:43:01.092Z,1.2
2019-01-24T16:44:01.094Z,1.1
2019-01-24T16:45:01.097Z,0.9
2019-01-24T16:46:01.093Z,0.8
2019-01-24T16:47:01.303Z,0.7
2019-01-24T16:49:01.092Z,0.6
2019-01-24T16:50:01.098Z,0.5
2019-01-24T16:52:01.301Z,0.4
2019-01-24T16:53:01.095Z,0.3
2019-01-24T16:55:06.185Z,0.2
2019-01-24T16:56:02.970Z,0.1
